Terminal Aerodrome Forecast
Issued by NWS Riverton, WY

Home | Current Version | Previous Version | Text Only | Print | Product List | Glossary On
Versions: 1 2 3 4 5 6 7 8 9 10 11 12
000
FTUS45 KRIW 111100
TAFRIW
TAF
KRIW 111134Z 1112/1212 VRB06KT P6SM SCT110 SCT200
     FM111900 VRB05KT P6SM VCSH SCT100 BKN150
     FM112030 05009KT P6SM VCTS SCT070CB BKN120
     FM120300 03007KT P6SM SCT090 BKN150
     FM120800 VRB05KT P6SM SCT120=

USA.gov is the U.S. government's official web portal to all federal, state and local government web resources and services.